sensor_id;sensor_type;location;lat;lon;timestamp;P1;durP1;ratioP1;P2;durP2;ratioP2
32639;SDS011;19049;52.524;11.468;2023-06-22T00:00:41;7.30;;;6.50;;
32639;SDS011;19049;52.524;11.468;2023-06-22T00:03:07;7.23;;;6.50;;
32639;SDS011;19049;52.524;11.468;2023-06-22T00:05:33;7.40;;;6.70;;
32639;SDS011;19049;52.524;11.468;2023-06-22T00:08:01;7.47;;;6.67;;
32639;SDS011;19049;52.524;11.468;2023-06-22T00:10:29;5.87;;;5.37;;
32639;SDS011;19049;52.524;11.468;2023-06-22T00:12:54;6.67;;;5.97;;
32639;SDS011;19049;52.524;11.468;2023-06-22T00:15:20;6.77;;;6.07;;
32639;SDS011;19049;52.524;11.468;2023-06-22T00:17:46;7.47;;;6.40;;
32639;SDS011;19049;52.524;11.468;2023-06-22T00:20:12;7.57;;;6.87;;
32639;SDS011;19049;52.524;11.468;2023-06-22T00:22:39;7.00;;;6.30;;
32639;SDS011;19049;52.524;11.468;2023-06-22T00:25:08;7.00;;;6.30;;
32639;SDS011;19049;52.524;11.468;2023-06-22T00:27:34;6.97;;;6.27;;
32639;SDS011;19049;52.524;11.468;2023-06-22T00:30:00;7.00;;;6.30;;
32639;SDS011;19049;52.524;11.468;2023-06-22T00:32:26;6.80;;;6.10;;
32639;SDS011;19049;52.524;11.468;2023-06-22T00:34:52;6.00;;;5.40;;
32639;SDS011;19049;52.524;11.468;2023-06-22T00:37:17;6.90;;;6.13;;
32639;SDS011;19049;52.524;11.468;2023-06-22T00:39:43;7.10;;;6.40;;
32639;SDS011;19049;52.524;11.468;2023-06-22T00:42:09;7.63;;;6.87;;
32639;SDS011;19049;52.524;11.468;2023-06-22T00:44:36;8.17;;;6.90;;
32639;SDS011;19049;52.524;11.468;2023-06-22T00:47:02;7.30;;;6.53;;
32639;SDS011;19049;52.524;11.468;2023-06-22T00:49:28;7.23;;;6.50;;
32639;SDS011;19049;52.524;11.468;2023-06-22T00:51:54;7.87;;;7.07;;
32639;SDS011;19049;52.524;11.468;2023-06-22T00:54:20;7.30;;;6.60;;
32639;SDS011;19049;52.524;11.468;2023-06-22T00:56:50;7.67;;;6.13;;
32639;SDS011;19049;52.524;11.468;2023-06-22T00:59:23;6.03;;;5.43;;
32639;SDS011;19049;52.524;11.468;2023-06-22T01:01:49;6.57;;;5.87;;
32639;SDS011;19049;52.524;11.468;2023-06-22T01:04:14;6.30;;;5.70;;
32639;SDS011;19049;52.524;11.468;2023-06-22T01:06:45;7.97;;;5.70;;
32639;SDS011;19049;52.524;11.468;2023-06-22T01:09:20;6.80;;;6.10;;
32639;SDS011;19049;52.524;11.468;2023-06-22T01:11:57;6.70;;;6.00;;
32639;SDS011;19049;52.524;11.468;2023-06-22T01:14:36;6.83;;;6.13;;
32639;SDS011;19049;52.524;11.468;2023-06-22T01:17:07;6.43;;;5.80;;
32639;SDS011;19049;52.524;11.468;2023-06-22T01:19:39;7.03;;;6.33;;
32639;SDS011;19049;52.524;11.468;2023-06-22T01:22:12;6.37;;;5.67;;
32639;SDS011;19049;52.524;11.468;2023-06-22T01:25:07;6.60;;;5.90;;
32639;SDS011;19049;52.524;11.468;2023-06-22T01:30:40;7.30;;;5.60;;
32639;SDS011;19049;52.524;11.468;2023-06-22T01:33:09;4.90;;;4.43;;
32639;SDS011;19049;52.524;11.468;2023-06-22T01:35:38;5.33;;;4.83;;
32639;SDS011;19049;52.524;11.468;2023-06-22T01:38:04;6.33;;;5.70;;
32639;SDS011;19049;52.524;11.468;2023-06-22T01:40:31;6.80;;;6.07;;
32639;SDS011;19049;52.524;11.468;2023-06-22T01:43:00;6.63;;;6.00;;
32639;SDS011;19049;52.524;11.468;2023-06-22T01:45:27;5.70;;;5.10;;
32639;SDS011;19049;52.524;11.468;2023-06-22T01:47:53;6.10;;;5.50;;
32639;SDS011;19049;52.524;11.468;2023-06-22T01:50:20;6.17;;;5.57;;
32639;SDS011;19049;52.524;11.468;2023-06-22T01:52:46;6.10;;;5.50;;
32639;SDS011;19049;52.524;11.468;2023-06-22T01:55:12;6.30;;;5.70;;
32639;SDS011;19049;52.524;11.468;2023-06-22T01:57:38;6.00;;;5.40;;
32639;SDS011;19049;52.524;11.468;2023-06-22T02:02:35;6.47;;;5.83;;
32639;SDS011;19049;52.524;11.468;2023-06-22T02:05:08;6.87;;;6.07;;
32639;SDS011;19049;52.524;11.468;2023-06-22T02:10:27;7.23;;;6.23;;
32639;SDS011;19049;52.524;11.468;2023-06-22T02:12:53;7.23;;;6.20;;
32639;SDS011;19049;52.524;11.468;2023-06-22T02:15:22;7.20;;;6.50;;
32639;SDS011;19049;52.524;11.468;2023-06-22T02:17:47;6.00;;;5.20;;
32639;SDS011;19049;52.524;11.468;2023-06-22T02:20:14;7.17;;;6.47;;
32639;SDS011;19049;52.524;11.468;2023-06-22T02:22:40;6.33;;;5.67;;
32639;SDS011;19049;52.524;11.468;2023-06-22T02:25:06;6.77;;;6.17;;
32639;SDS011;19049;52.524;11.468;2023-06-22T02:27:32;7.30;;;6.23;;
32639;SDS011;19049;52.524;11.468;2023-06-22T02:29:57;6.43;;;5.77;;
32639;SDS011;19049;52.524;11.468;2023-06-22T02:32:23;7.40;;;6.50;;
32639;SDS011;19049;52.524;11.468;2023-06-22T02:34:48;6.30;;;5.63;;
32639;SDS011;19049;52.524;11.468;2023-06-22T02:37:15;6.40;;;5.80;;
32639;SDS011;19049;52.524;11.468;2023-06-22T02:39:42;6.60;;;5.90;;
32639;SDS011;19049;52.524;11.468;2023-06-22T02:42:08;7.40;;;5.90;;
32639;SDS011;19049;52.524;11.468;2023-06-22T02:44:35;7.23;;;6.13;;
32639;SDS011;19049;52.524;11.468;2023-06-22T02:47:01;6.77;;;6.07;;
32639;SDS011;19049;52.524;11.468;2023-06-22T02:49:27;7.00;;;6.30;;
32639;SDS011;19049;52.524;11.468;2023-06-22T02:51:53;7.43;;;6.47;;
32639;SDS011;19049;52.524;11.468;2023-06-22T02:54:20;7.07;;;6.37;;
32639;SDS011;19049;52.524;11.468;2023-06-22T02:56:46;6.40;;;5.70;;
32639;SDS011;19049;52.524;11.468;2023-06-22T02:59:13;6.07;;;5.47;;
32639;SDS011;19049;52.524;11.468;2023-06-22T03:01:38;6.20;;;5.60;;
32639;SDS011;19049;52.524;11.468;2023-06-22T03:04:07;7.07;;;6.37;;
32639;SDS011;19049;52.524;11.468;2023-06-22T03:06:33;6.50;;;5.83;;
32639;SDS011;19049;52.524;11.468;2023-06-22T03:09:00;7.07;;;6.37;;
32639;SDS011;19049;52.524;11.468;2023-06-22T03:11:28;6.60;;;6.00;;
32639;SDS011;19049;52.524;11.468;2023-06-22T03:13:55;7.30;;;6.60;;
32639;SDS011;19049;52.524;11.468;2023-06-22T03:16:21;7.17;;;6.47;;
32639;SDS011;19049;52.524;11.468;2023-06-22T03:18:47;6.93;;;5.87;;
32639;SDS011;19049;52.524;11.468;2023-06-22T03:21:13;6.13;;;5.50;;
32639;SDS011;19049;52.524;11.468;2023-06-22T03:23:40;6.23;;;5.63;;
32639;SDS011;19049;52.524;11.468;2023-06-22T03:26:06;6.53;;;5.93;;
32639;SDS011;19049;52.524;11.468;2023-06-22T03:28:32;6.50;;;5.80;;
32639;SDS011;19049;52.524;11.468;2023-06-22T03:30:58;6.63;;;5.93;;
32639;SDS011;19049;52.524;11.468;2023-06-22T03:33:24;6.53;;;5.90;;
32639;SDS011;19049;52.524;11.468;2023-06-22T03:35:50;6.40;;;5.80;;
32639;SDS011;19049;52.524;11.468;2023-06-22T03:38:16;5.97;;;5.37;;
32639;SDS011;19049;52.524;11.468;2023-06-22T03:40:42;7.03;;;6.33;;
32639;SDS011;19049;52.524;11.468;2023-06-22T03:43:08;6.93;;;6.23;;
32639;SDS011;19049;52.524;11.468;2023-06-22T03:45:34;7.30;;;6.60;;
32639;SDS011;19049;52.524;11.468;2023-06-22T03:48:00;6.63;;;5.97;;
32639;SDS011;19049;52.524;11.468;2023-06-22T03:50:26;6.67;;;5.90;;
32639;SDS011;19049;52.524;11.468;2023-06-22T03:52:52;6.13;;;5.50;;
32639;SDS011;19049;52.524;11.468;2023-06-22T03:55:21;6.97;;;6.07;;
32639;SDS011;19049;52.524;11.468;2023-06-22T03:57:46;6.93;;;6.20;;
32639;SDS011;19049;52.524;11.468;2023-06-22T04:00:13;7.70;;;6.90;;
32639;SDS011;19049;52.524;11.468;2023-06-22T04:02:40;7.47;;;6.50;;
32639;SDS011;19049;52.524;11.468;2023-06-22T04:05:07;8.00;;;7.20;;
32639;SDS011;19049;52.524;11.468;2023-06-22T04:07:36;7.13;;;6.43;;
32639;SDS011;19049;52.524;11.468;2023-06-22T04:10:02;7.47;;;6.73;;
32639;SDS011;19049;52.524;11.468;2023-06-22T04:12:29;6.70;;;6.03;;
32639;SDS011;19049;52.524;11.468;2023-06-22T04:14:54;6.30;;;5.70;;
32639;SDS011;19049;52.524;11.468;2023-06-22T04:17:20;7.03;;;6.33;;
32639;SDS011;19049;52.524;11.468;2023-06-22T04:19:49;6.47;;;5.87;;
32639;SDS011;19049;52.524;11.468;2023-06-22T04:22:15;7.47;;;6.77;;
32639;SDS011;19049;52.524;11.468;2023-06-22T04:24:41;8.40;;;7.07;;
32639;SDS011;19049;52.524;11.468;2023-06-22T04:27:06;8.13;;;6.97;;
32639;SDS011;19049;52.524;11.468;2023-06-22T04:29:32;7.53;;;6.73;;
32639;SDS011;19049;52.524;11.468;2023-06-22T04:31:58;7.97;;;7.23;;
32639;SDS011;19049;52.524;11.468;2023-06-22T04:34:28;7.83;;;6.80;;
32639;SDS011;19049;52.524;11.468;2023-06-22T04:36:54;6.93;;;6.23;;
32639;SDS011;19049;52.524;11.468;2023-06-22T04:39:20;7.23;;;6.53;;
32639;SDS011;19049;52.524;11.468;2023-06-22T04:41:46;8.00;;;6.67;;
32639;SDS011;19049;52.524;11.468;2023-06-22T04:44:16;7.37;;;6.67;;
32639;SDS011;19049;52.524;11.468;2023-06-22T04:46:52;6.27;;;5.63;;
32639;SDS011;19049;52.524;11.468;2023-06-22T04:49:27;6.40;;;5.80;;
32639;SDS011;19049;52.524;11.468;2023-06-22T04:51:57;7.80;;;6.43;;
32639;SDS011;19049;52.524;11.468;2023-06-22T04:54:23;7.03;;;6.37;;
32639;SDS011;19049;52.524;11.468;2023-06-22T04:56:50;7.13;;;6.27;;
32639;SDS011;19049;52.524;11.468;2023-06-22T04:59:28;7.47;;;6.77;;
32639;SDS011;19049;52.524;11.468;2023-06-22T05:01:58;7.30;;;6.60;;
32639;SDS011;19049;52.524;11.468;2023-06-22T05:04:25;7.17;;;6.47;;
32639;SDS011;19049;52.524;11.468;2023-06-22T05:06:52;7.60;;;6.90;;
32639;SDS011;19049;52.524;11.468;2023-06-22T05:09:18;8.07;;;6.40;;
32639;SDS011;19049;52.524;11.468;2023-06-22T05:11:44;7.33;;;6.67;;
32639;SDS011;19049;52.524;11.468;2023-06-22T05:14:10;10.27;;;7.30;;
32639;SDS011;19049;52.524;11.468;2023-06-22T05:16:37;7.73;;;7.03;;
32639;SDS011;19049;52.524;11.468;2023-06-22T05:19:03;7.33;;;6.63;;
32639;SDS011;19049;52.524;11.468;2023-06-22T05:21:29;7.83;;;7.07;;
32639;SDS011;19049;52.524;11.468;2023-06-22T05:23:56;7.40;;;6.70;;
32639;SDS011;19049;52.524;11.468;2023-06-22T05:26:27;7.77;;;6.97;;
32639;SDS011;19049;52.524;11.468;2023-06-22T05:28:57;7.50;;;6.80;;
32639;SDS011;19049;52.524;11.468;2023-06-22T05:31:22;8.87;;;7.50;;
32639;SDS011;19049;52.524;11.468;2023-06-22T05:33:49;7.37;;;6.67;;
32639;SDS011;19049;52.524;11.468;2023-06-22T05:36:16;7.50;;;6.80;;
32639;SDS011;19049;52.524;11.468;2023-06-22T05:38:42;7.43;;;6.73;;
32639;SDS011;19049;52.524;11.468;2023-06-22T05:41:07;7.17;;;6.47;;
32639;SDS011;19049;52.524;11.468;2023-06-22T05:43:34;7.67;;;6.97;;
32639;SDS011;19049;52.524;11.468;2023-06-22T05:46:00;7.10;;;6.40;;
32639;SDS011;19049;52.524;11.468;2023-06-22T05:48:26;6.63;;;6.03;;
32639;SDS011;19049;52.524;11.468;2023-06-22T05:50:52;6.33;;;5.60;;
32639;SDS011;19049;52.524;11.468;2023-06-22T05:53:18;5.90;;;5.40;;
32639;SDS011;19049;52.524;11.468;2023-06-22T05:55:44;6.57;;;5.97;;
32639;SDS011;19049;52.524;11.468;2023-06-22T05:58:10;5.30;;;4.80;;
32639;SDS011;19049;52.524;11.468;2023-06-22T06:00:36;5.77;;;4.33;;
32639;SDS011;19049;52.524;11.468;2023-06-22T06:03:01;4.27;;;3.87;;
32639;SDS011;19049;52.524;11.468;2023-06-22T06:05:32;4.87;;;4.47;;
32639;SDS011;19049;52.524;11.468;2023-06-22T06:08:02;5.83;;;5.30;;
32639;SDS011;19049;52.524;11.468;2023-06-22T06:10:30;6.50;;;5.37;;
32639;SDS011;19049;52.524;11.468;2023-06-22T06:13:00;5.23;;;4.70;;
32639;SDS011;19049;52.524;11.468;2023-06-22T06:15:29;5.50;;;5.00;;
32639;SDS011;19049;52.524;11.468;2023-06-22T06:17:55;6.53;;;5.93;;
32639;SDS011;19049;52.524;11.468;2023-06-22T06:20:21;6.10;;;5.60;;
32639;SDS011;19049;52.524;11.468;2023-06-22T06:22:48;5.90;;;5.40;;
32639;SDS011;19049;52.524;11.468;2023-06-22T06:25:14;5.60;;;5.10;;
32639;SDS011;19049;52.524;11.468;2023-06-22T06:27:45;6.37;;;5.77;;
32639;SDS011;19049;52.524;11.468;2023-06-22T06:30:12;6.17;;;5.57;;
32639;SDS011;19049;52.524;11.468;2023-06-22T06:32:39;6.73;;;6.07;;
32639;SDS011;19049;52.524;11.468;2023-06-22T06:35:08;7.40;;;6.13;;
32639;SDS011;19049;52.524;11.468;2023-06-22T06:37:41;6.77;;;6.07;;
32639;SDS011;19049;52.524;11.468;2023-06-22T06:40:09;6.57;;;5.97;;
32639;SDS011;19049;52.524;11.468;2023-06-22T06:42:44;6.13;;;5.53;;
32639;SDS011;19049;52.524;11.468;2023-06-22T06:45:11;6.17;;;5.00;;
32639;SDS011;19049;52.524;11.468;2023-06-22T06:47:40;5.53;;;5.03;;
32639;SDS011;19049;52.524;11.468;2023-06-22T06:50:06;5.87;;;5.37;;
32639;SDS011;19049;52.524;11.468;2023-06-22T06:52:32;6.13;;;5.27;;
32639;SDS011;19049;52.524;11.468;2023-06-22T06:54:58;5.20;;;4.57;;
32639;SDS011;19049;52.524;11.468;2023-06-22T06:57:24;4.93;;;4.53;;
32639;SDS011;19049;52.524;11.468;2023-06-22T06:59:53;5.73;;;5.10;;
32639;SDS011;19049;52.524;11.468;2023-06-22T07:02:20;5.40;;;4.90;;
32639;SDS011;19049;52.524;11.468;2023-06-22T07:04:46;5.67;;;5.03;;
32639;SDS011;19049;52.524;11.468;2023-06-22T07:07:12;4.97;;;4.40;;
32639;SDS011;19049;52.524;11.468;2023-06-22T07:09:37;5.27;;;4.77;;
32639;SDS011;19049;52.524;11.468;2023-06-22T07:12:03;5.67;;;5.17;;
32639;SDS011;19049;52.524;11.468;2023-06-22T07:14:29;4.67;;;4.27;;
32639;SDS011;19049;52.524;11.468;2023-06-22T07:16:56;5.63;;;5.10;;
32639;SDS011;19049;52.524;11.468;2023-06-22T07:19:26;5.30;;;4.80;;
32639;SDS011;19049;52.524;11.468;2023-06-22T07:21:55;4.80;;;4.40;;
32639;SDS011;19049;52.524;11.468;2023-06-22T07:24:21;4.97;;;4.50;;
32639;SDS011;19049;52.524;11.468;2023-06-22T07:26:48;5.63;;;5.00;;
32639;SDS011;19049;52.524;11.468;2023-06-22T07:29:15;6.00;;;4.60;;
32639;SDS011;19049;52.524;11.468;2023-06-22T07:31:46;5.23;;;4.73;;
32639;SDS011;19049;52.524;11.468;2023-06-22T07:34:12;5.20;;;4.80;;
32639;SDS011;19049;52.524;11.468;2023-06-22T07:36:38;5.27;;;4.77;;
32639;SDS011;19049;52.524;11.468;2023-06-22T07:39:04;5.60;;;5.10;;
32639;SDS011;19049;52.524;11.468;2023-06-22T07:41:30;5.90;;;5.30;;
32639;SDS011;19049;52.524;11.468;2023-06-22T07:43:56;4.83;;;4.43;;
32639;SDS011;19049;52.524;11.468;2023-06-22T07:46:22;5.30;;;4.80;;
32639;SDS011;19049;52.524;11.468;2023-06-22T07:48:48;6.27;;;5.67;;
32639;SDS011;19049;52.524;11.468;2023-06-22T07:51:14;6.30;;;5.60;;
32639;SDS011;19049;52.524;11.468;2023-06-22T07:53:43;6.10;;;5.50;;
32639;SDS011;19049;52.524;11.468;2023-06-22T07:56:10;6.87;;;5.90;;
32639;SDS011;19049;52.524;11.468;2023-06-22T07:58:36;6.50;;;5.90;;
32639;SDS011;19049;52.524;11.468;2023-06-22T08:01:02;5.43;;;4.93;;
32639;SDS011;19049;52.524;11.468;2023-06-22T08:03:28;5.40;;;4.93;;
32639;SDS011;19049;52.524;11.468;2023-06-22T08:05:54;4.87;;;4.47;;
32639;SDS011;19049;52.524;11.468;2023-06-22T08:08:20;5.20;;;4.80;;
32639;SDS011;19049;52.524;11.468;2023-06-22T08:10:46;5.40;;;4.90;;
32639;SDS011;19049;52.524;11.468;2023-06-22T08:13:12;5.53;;;5.03;;
32639;SDS011;19049;52.524;11.468;2023-06-22T08:15:37;5.20;;;4.80;;
32639;SDS011;19049;52.524;11.468;2023-06-22T08:18:03;5.30;;;4.80;;
32639;SDS011;19049;52.524;11.468;2023-06-22T08:20:29;5.13;;;4.63;;
32639;SDS011;19049;52.524;11.468;2023-06-22T08:22:55;5.90;;;5.30;;
32639;SDS011;19049;52.524;11.468;2023-06-22T08:25:22;5.50;;;5.00;;
32639;SDS011;19049;52.524;11.468;2023-06-22T08:27:48;5.13;;;4.63;;
32639;SDS011;19049;52.524;11.468;2023-06-22T08:30:14;6.17;;;5.60;;
32639;SDS011;19049;52.524;11.468;2023-06-22T08:32:40;5.93;;;5.43;;
32639;SDS011;19049;52.524;11.468;2023-06-22T08:35:06;5.77;;;5.20;;
32639;SDS011;19049;52.524;11.468;2023-06-22T08:37:33;5.97;;;4.90;;
32639;SDS011;19049;52.524;11.468;2023-06-22T08:40:01;5.80;;;5.10;;
32639;SDS011;19049;52.524;11.468;2023-06-22T08:42:37;5.33;;;4.83;;
32639;SDS011;19049;52.524;11.468;2023-06-22T08:45:05;5.60;;;5.10;;
32639;SDS011;19049;52.524;11.468;2023-06-22T08:47:31;5.53;;;5.03;;
32639;SDS011;19049;52.524;11.468;2023-06-22T08:49:57;5.07;;;4.53;;
32639;SDS011;19049;52.524;11.468;2023-06-22T08:52:23;5.10;;;4.70;;
32639;SDS011;19049;52.524;11.468;2023-06-22T08:54:48;5.40;;;5.00;;
32639;SDS011;19049;52.524;11.468;2023-06-22T08:57:14;5.23;;;4.83;;
32639;SDS011;19049;52.524;11.468;2023-06-22T08:59:41;5.10;;;4.63;;
32639;SDS011;19049;52.524;11.468;2023-06-22T09:02:07;5.90;;;5.40;;
32639;SDS011;19049;52.524;11.468;2023-06-22T09:04:33;5.20;;;4.80;;
32639;SDS011;19049;52.524;11.468;2023-06-22T09:07:01;5.27;;;4.87;;
32639;SDS011;19049;52.524;11.468;2023-06-22T09:09:27;5.23;;;4.80;;
32639;SDS011;19049;52.524;11.468;2023-06-22T09:11:53;4.87;;;4.47;;
32639;SDS011;19049;52.524;11.468;2023-06-22T09:14:18;5.33;;;4.83;;
32639;SDS011;19049;52.524;11.468;2023-06-22T09:16:44;5.23;;;4.80;;
32639;SDS011;19049;52.524;11.468;2023-06-22T09:19:10;7.90;;;5.37;;
32639;SDS011;19049;52.524;11.468;2023-06-22T09:21:36;4.93;;;4.57;;
32639;SDS011;19049;52.524;11.468;2023-06-22T09:24:02;6.80;;;6.20;;
32639;SDS011;19049;52.524;11.468;2023-06-22T09:26:27;5.13;;;4.63;;
32639;SDS011;19049;52.524;11.468;2023-06-22T09:28:53;5.37;;;4.87;;
32639;SDS011;19049;52.524;11.468;2023-06-22T09:31:19;5.53;;;5.03;;
32639;SDS011;19049;52.524;11.468;2023-06-22T09:33:50;5.80;;;5.30;;
32639;SDS011;19049;52.524;11.468;2023-06-22T09:36:17;5.50;;;5.03;;
32639;SDS011;19049;52.524;11.468;2023-06-22T09:38:43;5.80;;;5.20;;
32639;SDS011;19049;52.524;11.468;2023-06-22T09:41:09;5.53;;;5.03;;
32639;SDS011;19049;52.524;11.468;2023-06-22T09:43:34;5.87;;;5.37;;
32639;SDS011;19049;52.524;11.468;2023-06-22T09:46:01;6.40;;;5.90;;
32639;SDS011;19049;52.524;11.468;2023-06-22T09:48:27;5.40;;;5.00;;
32639;SDS011;19049;52.524;11.468;2023-06-22T09:50:54;5.43;;;5.00;;
32639;SDS011;19049;52.524;11.468;2023-06-22T09:53:20;6.73;;;6.13;;
32639;SDS011;19049;52.524;11.468;2023-06-22T09:55:46;6.37;;;5.87;;
32639;SDS011;19049;52.524;11.468;2023-06-22T09:58:11;7.00;;;6.40;;
32639;SDS011;19049;52.524;11.468;2023-06-22T10:00:37;6.70;;;6.10;;
32639;SDS011;19049;52.524;11.468;2023-06-22T10:03:03;6.83;;;6.23;;
32639;SDS011;19049;52.524;11.468;2023-06-22T10:05:29;6.63;;;6.13;;
32639;SDS011;19049;52.524;11.468;2023-06-22T10:07:54;6.87;;;6.37;;
32639;SDS011;19049;52.524;11.468;2023-06-22T10:10:20;6.00;;;5.50;;
32639;SDS011;19049;52.524;11.468;2023-06-22T10:12:47;6.47;;;5.80;;
32639;SDS011;19049;52.524;11.468;2023-06-22T10:15:13;5.37;;;4.93;;
32639;SDS011;19049;52.524;11.468;2023-06-22T10:17:40;6.63;;;6.07;;
32639;SDS011;19049;52.524;11.468;2023-06-22T10:20:06;5.77;;;5.27;;
32639;SDS011;19049;52.524;11.468;2023-06-22T10:22:42;5.07;;;4.67;;
32639;SDS011;19049;52.524;11.468;2023-06-22T10:25:09;7.23;;;5.63;;
32639;SDS011;19049;52.524;11.468;2023-06-22T10:27:36;5.90;;;5.30;;
32639;SDS011;19049;52.524;11.468;2023-06-22T10:30:05;5.97;;;5.47;;
32639;SDS011;19049;52.524;11.468;2023-06-22T10:32:32;7.30;;;6.60;;
32639;SDS011;19049;52.524;11.468;2023-06-22T10:34:58;6.80;;;6.20;;
32639;SDS011;19049;52.524;11.468;2023-06-22T10:37:24;7.03;;;6.43;;
32639;SDS011;19049;52.524;11.468;2023-06-22T10:39:50;6.10;;;5.60;;
32639;SDS011;19049;52.524;11.468;2023-06-22T10:42:15;6.40;;;5.90;;
32639;SDS011;19049;52.524;11.468;2023-06-22T10:44:41;6.33;;;5.73;;
32639;SDS011;19049;52.524;11.468;2023-06-22T10:47:09;5.83;;;5.33;;
32639;SDS011;19049;52.524;11.468;2023-06-22T10:49:36;6.00;;;5.40;;
32639;SDS011;19049;52.524;11.468;2023-06-22T10:52:06;7.67;;;6.80;;
32639;SDS011;19049;52.524;11.468;2023-06-22T10:54:32;6.10;;;5.60;;
32639;SDS011;19049;52.524;11.468;2023-06-22T10:56:59;6.57;;;5.97;;
32639;SDS011;19049;52.524;11.468;2023-06-22T10:59:25;6.40;;;5.80;;
32639;SDS011;19049;52.524;11.468;2023-06-22T11:01:51;6.03;;;5.53;;
32639;SDS011;19049;52.524;11.468;2023-06-22T11:04:17;6.33;;;5.83;;
32639;SDS011;19049;52.524;11.468;2023-06-22T11:06:43;6.30;;;5.80;;
32639;SDS011;19049;52.524;11.468;2023-06-22T11:09:09;7.17;;;6.47;;
32639;SDS011;19049;52.524;11.468;2023-06-22T11:11:35;6.50;;;6.00;;
32639;SDS011;19049;52.524;11.468;2023-06-22T11:14:00;6.07;;;5.47;;
32639;SDS011;19049;52.524;11.468;2023-06-22T11:16:26;6.40;;;5.90;;
32639;SDS011;19049;52.524;11.468;2023-06-22T11:18:52;7.57;;;6.47;;
32639;SDS011;19049;52.524;11.468;2023-06-22T11:21:18;7.90;;;6.57;;
32639;SDS011;19049;52.524;11.468;2023-06-22T11:23:43;7.07;;;6.43;;
32639;SDS011;19049;52.524;11.468;2023-06-22T11:26:09;7.53;;;6.83;;
32639;SDS011;19049;52.524;11.468;2023-06-22T11:28:35;7.53;;;6.83;;
32639;SDS011;19049;52.524;11.468;2023-06-22T11:31:01;6.70;;;6.10;;
32639;SDS011;19049;52.524;11.468;2023-06-22T11:33:27;6.90;;;6.30;;
32639;SDS011;19049;52.524;11.468;2023-06-22T11:35:53;6.57;;;5.97;;
32639;SDS011;19049;52.524;11.468;2023-06-22T11:38:18;6.80;;;6.20;;
32639;SDS011;19049;52.524;11.468;2023-06-22T11:40:44;7.83;;;5.53;;
32639;SDS011;19049;52.524;11.468;2023-06-22T11:43:09;6.43;;;5.83;;
32639;SDS011;19049;52.524;11.468;2023-06-22T11:45:35;7.13;;;6.53;;
32639;SDS011;19049;52.524;11.468;2023-06-22T11:48:00;6.80;;;6.20;;
32639;SDS011;19049;52.524;11.468;2023-06-22T11:50:26;7.23;;;6.43;;
32639;SDS011;19049;52.524;11.468;2023-06-22T11:52:55;7.30;;;6.60;;
32639;SDS011;19049;52.524;11.468;2023-06-22T11:55:21;7.20;;;6.60;;
32639;SDS011;19049;52.524;11.468;2023-06-22T11:57:56;7.40;;;6.73;;
32639;SDS011;19049;52.524;11.468;2023-06-22T12:00:25;7.07;;;6.10;;
32639;SDS011;19049;52.524;11.468;2023-06-22T12:02:51;7.33;;;6.60;;
32639;SDS011;19049;52.524;11.468;2023-06-22T12:05:20;6.37;;;5.77;;
32639;SDS011;19049;52.524;11.468;2023-06-22T12:07:49;7.00;;;6.30;;
32639;SDS011;19049;52.524;11.468;2023-06-22T12:10:15;6.67;;;6.03;;
32639;SDS011;19049;52.524;11.468;2023-06-22T12:12:41;6.63;;;6.03;;
32639;SDS011;19049;52.524;11.468;2023-06-22T12:15:08;6.87;;;6.13;;
32639;SDS011;19049;52.524;11.468;2023-06-22T12:17:34;6.80;;;6.20;;
32639;SDS011;19049;52.524;11.468;2023-06-22T12:20:00;6.23;;;5.73;;
32639;SDS011;19049;52.524;11.468;2023-06-22T12:22:27;6.50;;;5.83;;
32639;SDS011;19049;52.524;11.468;2023-06-22T12:24:53;7.37;;;6.57;;
32639;SDS011;19049;52.524;11.468;2023-06-22T12:27:18;6.50;;;6.00;;
32639;SDS011;19049;52.524;11.468;2023-06-22T12:29:47;7.17;;;6.57;;
32639;SDS011;19049;52.524;11.468;2023-06-22T12:32:13;6.93;;;6.20;;
32639;SDS011;19049;52.524;11.468;2023-06-22T12:34:39;6.27;;;5.77;;
32639;SDS011;19049;52.524;11.468;2023-06-22T12:37:06;6.90;;;6.30;;
32639;SDS011;19049;52.524;11.468;2023-06-22T12:39:32;6.60;;;5.97;;
32639;SDS011;19049;52.524;11.468;2023-06-22T12:41:58;6.63;;;6.13;;
32639;SDS011;19049;52.524;11.468;2023-06-22T12:44:23;6.50;;;5.93;;
32639;SDS011;19049;52.524;11.468;2023-06-22T12:46:49;6.97;;;6.37;;
32639;SDS011;19049;52.524;11.468;2023-06-22T12:49:15;6.63;;;5.93;;
32639;SDS011;19049;52.524;11.468;2023-06-22T12:51:41;6.60;;;6.07;;
32639;SDS011;19049;52.524;11.468;2023-06-22T12:54:08;6.70;;;6.10;;
32639;SDS011;19049;52.524;11.468;2023-06-22T12:56:34;6.70;;;6.20;;
32639;SDS011;19049;52.524;11.468;2023-06-22T12:58:59;7.37;;;6.77;;
32639;SDS011;19049;52.524;11.468;2023-06-22T13:01:28;6.73;;;6.13;;
32639;SDS011;19049;52.524;11.468;2023-06-22T13:03:55;6.00;;;5.50;;
32639;SDS011;19049;52.524;11.468;2023-06-22T13:06:21;6.73;;;6.13;;
32639;SDS011;19049;52.524;11.468;2023-06-22T13:08:47;7.23;;;6.57;;
32639;SDS011;19049;52.524;11.468;2023-06-22T13:11:12;7.00;;;6.43;;
32639;SDS011;19049;52.524;11.468;2023-06-22T13:13:39;7.30;;;6.40;;
32639;SDS011;19049;52.524;11.468;2023-06-22T13:16:05;6.70;;;6.10;;
32639;SDS011;19049;52.524;11.468;2023-06-22T13:18:31;6.77;;;6.23;;
32639;SDS011;19049;52.524;11.468;2023-06-22T13:20:58;7.20;;;6.27;;
32639;SDS011;19049;52.524;11.468;2023-06-22T13:23:25;6.03;;;5.50;;
32639;SDS011;19049;52.524;11.468;2023-06-22T13:25:50;7.30;;;6.60;;
32639;SDS011;19049;52.524;11.468;2023-06-22T13:28:16;6.47;;;5.87;;
32639;SDS011;19049;52.524;11.468;2023-06-22T13:30:42;7.57;;;6.87;;
32639;SDS011;19049;52.524;11.468;2023-06-22T13:33:11;6.77;;;6.10;;
32639;SDS011;19049;52.524;11.468;2023-06-22T13:35:36;6.03;;;5.53;;
32639;SDS011;19049;52.524;11.468;2023-06-22T13:38:02;6.23;;;5.73;;
32639;SDS011;19049;52.524;11.468;2023-06-22T13:40:28;6.40;;;5.90;;
32639;SDS011;19049;52.524;11.468;2023-06-22T13:42:55;6.37;;;5.77;;
32639;SDS011;19049;52.524;11.468;2023-06-22T13:45:21;6.70;;;6.10;;
32639;SDS011;19049;52.524;11.468;2023-06-22T13:47:47;6.10;;;5.60;;
32639;SDS011;19049;52.524;11.468;2023-06-22T13:50:13;6.50;;;6.00;;
32639;SDS011;19049;52.524;11.468;2023-06-22T13:52:39;7.23;;;6.53;;
32639;SDS011;19049;52.524;11.468;2023-06-22T13:55:05;6.40;;;5.80;;
32639;SDS011;19049;52.524;11.468;2023-06-22T13:57:32;6.67;;;6.07;;
32639;SDS011;19049;52.524;11.468;2023-06-22T13:59:58;6.67;;;6.07;;
32639;SDS011;19049;52.524;11.468;2023-06-22T14:02:25;6.53;;;5.93;;
32639;SDS011;19049;52.524;11.468;2023-06-22T14:04:51;6.30;;;5.80;;
32639;SDS011;19049;52.524;11.468;2023-06-22T14:07:17;6.50;;;5.90;;
32639;SDS011;19049;52.524;11.468;2023-06-22T14:09:44;6.50;;;5.90;;
32639;SDS011;19049;52.524;11.468;2023-06-22T14:12:10;6.50;;;6.00;;
32639;SDS011;19049;52.524;11.468;2023-06-22T14:14:36;6.60;;;5.90;;
32639;SDS011;19049;52.524;11.468;2023-06-22T14:17:02;6.50;;;5.90;;
32639;SDS011;19049;52.524;11.468;2023-06-22T14:19:29;6.70;;;6.20;;
32639;SDS011;19049;52.524;11.468;2023-06-22T14:21:54;7.53;;;6.83;;
32639;SDS011;19049;52.524;11.468;2023-06-22T14:24:21;6.53;;;6.03;;
32639;SDS011;19049;52.524;11.468;2023-06-22T14:26:47;6.07;;;5.50;;
32639;SDS011;19049;52.524;11.468;2023-06-22T14:29:13;6.30;;;5.77;;
32639;SDS011;19049;52.524;11.468;2023-06-22T14:31:39;7.30;;;6.03;;
32639;SDS011;19049;52.524;11.468;2023-06-22T14:34:05;6.63;;;5.97;;
32639;SDS011;19049;52.524;11.468;2023-06-22T14:36:31;6.80;;;6.10;;
32639;SDS011;19049;52.524;11.468;2023-06-22T14:38:57;6.53;;;6.00;;